sensor_id;sensor_type;location;lat;lon;timestamp;temperature;humidity
20881;DHT22;10600;53.096;8.802;2022-09-09T00:01:00;14.60;99.90
20881;DHT22;10600;53.096;8.802;2022-09-09T00:02:26;14.60;99.90
20881;DHT22;10600;53.096;8.802;2022-09-09T00:03:37;14.60;99.90
20881;DHT22;10600;53.096;8.802;2022-09-09T00:04:41;14.60;99.90
20881;DHT22;10600;53.096;8.802;2022-09-09T00:06:01;14.70;99.90
20881;DHT22;10600;53.096;8.802;2022-09-09T00:08:19;14.70;99.90
20881;DHT22;10600;53.096;8.802;2022-09-09T00:09:22;14.70;99.90
20881;DHT22;10600;53.096;8.802;2022-09-09T00:10:32;14.70;99.90
20881;DHT22;10600;53.096;8.802;2022-09-09T00:11:47;14.70;99.90
20881;DHT22;10600;53.096;8.802;2022-09-09T00:14:00;14.70;99.90
20881;DHT22;10600;53.096;8.802;2022-09-09T00:15:14;14.70;99.90
20881;DHT22;10600;53.096;8.802;2022-09-09T00:16:22;14.70;99.90
20881;DHT22;10600;53.096;8.802;2022-09-09T00:21:35;14.70;99.90
20881;DHT22;10600;53.096;8.802;2022-09-09T00:22:36;14.60;99.90
20881;DHT22;10600;53.096;8.802;2022-09-09T00:23:40;14.60;99.90
20881;DHT22;10600;53.096;8.802;2022-09-09T00:24:46;14.60;99.90
20881;DHT22;10600;53.096;8.802;2022-09-09T00:27:06;14.60;99.90
20881;DHT22;10600;53.096;8.802;2022-09-09T00:28:20;14.60;99.90
20881;DHT22;10600;53.096;8.802;2022-09-09T00:29:33;14.70;99.90
20881;DHT22;10600;53.096;8.802;2022-09-09T00:30:36;14.60;99.90
20881;DHT22;10600;53.096;8.802;2022-09-09T00:31:38;14.60;99.90
20881;DHT22;10600;53.096;8.802;2022-09-09T00:32:39;14.60;99.90
20881;DHT22;10600;53.096;8.802;2022-09-09T00:33:41;14.60;99.90
20881;DHT22;10600;53.096;8.802;2022-09-09T00:34:58;14.60;99.90
20881;DHT22;10600;53.096;8.802;2022-09-09T00:36:01;14.60;99.90
20881;DHT22;10600;53.096;8.802;2022-09-09T00:37:03;14.60;99.90
20881;DHT22;10600;53.096;8.802;2022-09-09T00:38:18;14.60;99.90
20881;DHT22;10600;53.096;8.802;2022-09-09T00:39:32;14.60;99.90
20881;DHT22;10600;53.096;8.802;2022-09-09T00:40:39;14.60;99.90
20881;DHT22;10600;53.096;8.802;2022-09-09T00:42:08;14.60;99.90
20881;DHT22;10600;53.096;8.802;2022-09-09T00:44:35;14.60;99.90
20881;DHT22;10600;53.096;8.802;2022-09-09T00:49:26;14.50;99.90
20881;DHT22;10600;53.096;8.802;2022-09-09T00:54:21;14.50;99.90
20881;DHT22;10600;53.096;8.802;2022-09-09T00:58:02;14.50;99.90
20881;DHT22;10600;53.096;8.802;2022-09-09T00:59:19;14.50;99.90
20881;DHT22;10600;53.096;8.802;2022-09-09T01:00:36;14.50;99.90
20881;DHT22;10600;53.096;8.802;2022-09-09T01:01:40;14.40;99.90
20881;DHT22;10600;53.096;8.802;2022-09-09T01:03:54;14.40;99.90
20881;DHT22;10600;53.096;8.802;2022-09-09T01:05:07;14.40;99.90
20881;DHT22;10600;53.096;8.802;2022-09-09T01:06:31;14.40;99.90
20881;DHT22;10600;53.096;8.802;2022-09-09T01:07:32;14.40;99.90
20881;DHT22;10600;53.096;8.802;2022-09-09T01:10:53;14.40;99.90
20881;DHT22;10600;53.096;8.802;2022-09-09T01:13:30;14.40;99.90
20881;DHT22;10600;53.096;8.802;2022-09-09T01:15:35;14.40;99.90
20881;DHT22;10600;53.096;8.802;2022-09-09T01:16:37;14.40;99.90
20881;DHT22;10600;53.096;8.802;2022-09-09T01:17:51;14.40;99.90
20881;DHT22;10600;53.096;8.802;2022-09-09T01:18:53;14.40;99.90
20881;DHT22;10600;53.096;8.802;2022-09-09T01:20:15;14.40;99.90
20881;DHT22;10600;53.096;8.802;2022-09-09T01:24:26;14.40;99.90
20881;DHT22;10600;53.096;8.802;2022-09-09T01:25:56;14.30;99.90
20881;DHT22;10600;53.096;8.802;2022-09-09T01:26:52;14.30;99.90
20881;DHT22;10600;53.096;8.802;2022-09-09T01:28:07;14.30;99.90
20881;DHT22;10600;53.096;8.802;2022-09-09T01:29:11;14.30;99.90
20881;DHT22;10600;53.096;8.802;2022-09-09T01:30:14;14.30;99.90
20881;DHT22;10600;53.096;8.802;2022-09-09T01:31:32;14.30;99.90
20881;DHT22;10600;53.096;8.802;2022-09-09T01:32:45;14.30;99.90
20881;DHT22;10600;53.096;8.802;2022-09-09T01:33:46;14.30;99.90
20881;DHT22;10600;53.096;8.802;2022-09-09T01:34:47;14.30;99.90
20881;DHT22;10600;53.096;8.802;2022-09-09T01:36:13;14.30;99.90
20881;DHT22;10600;53.096;8.802;2022-09-09T01:37:16;14.30;99.90
20881;DHT22;10600;53.096;8.802;2022-09-09T01:38:17;14.20;99.90
20881;DHT22;10600;53.096;8.802;2022-09-09T01:39:18;14.20;99.90
20881;DHT22;10600;53.096;8.802;2022-09-09T01:40:19;14.20;99.90
20881;DHT22;10600;53.096;8.802;2022-09-09T01:41:20;14.20;99.90
20881;DHT22;10600;53.096;8.802;2022-09-09T01:42:21;14.20;99.90
20881;DHT22;10600;53.096;8.802;2022-09-09T01:43:22;14.20;99.90
20881;DHT22;10600;53.096;8.802;2022-09-09T01:44:24;14.20;99.90
20881;DHT22;10600;53.096;8.802;2022-09-09T01:45:26;14.20;99.90
20881;DHT22;10600;53.096;8.802;2022-09-09T01:46:28;14.20;99.90
20881;DHT22;10600;53.096;8.802;2022-09-09T01:47:29;14.10;99.90
20881;DHT22;10600;53.096;8.802;2022-09-09T01:48:31;14.10;99.90
20881;DHT22;10600;53.096;8.802;2022-09-09T01:49:32;14.10;99.90
20881;DHT22;10600;53.096;8.802;2022-09-09T01:50:35;14.10;99.90
20881;DHT22;10600;53.096;8.802;2022-09-09T01:51:37;14.10;99.90
20881;DHT22;10600;53.096;8.802;2022-09-09T01:52:39;14.10;99.90
20881;DHT22;10600;53.096;8.802;2022-09-09T01:53:41;14.00;99.90
20881;DHT22;10600;53.096;8.802;2022-09-09T01:54:43;14.00;99.90
20881;DHT22;10600;53.096;8.802;2022-09-09T01:56:02;14.00;99.90
20881;DHT22;10600;53.096;8.802;2022-09-09T01:57:15;14.00;99.90
20881;DHT22;10600;53.096;8.802;2022-09-09T02:00:08;14.00;99.90
20881;DHT22;10600;53.096;8.802;2022-09-09T02:01:29;14.00;99.90
20881;DHT22;10600;53.096;8.802;2022-09-09T02:03:00;14.00;99.90
20881;DHT22;10600;53.096;8.802;2022-09-09T02:04:03;14.00;99.90
20881;DHT22;10600;53.096;8.802;2022-09-09T02:05:39;14.00;99.90
20881;DHT22;10600;53.096;8.802;2022-09-09T02:06:40;14.00;99.90
20881;DHT22;10600;53.096;8.802;2022-09-09T02:07:44;14.00;99.90
20881;DHT22;10600;53.096;8.802;2022-09-09T02:08:49;14.00;99.90
20881;DHT22;10600;53.096;8.802;2022-09-09T02:09:58;14.00;99.90
20881;DHT22;10600;53.096;8.802;2022-09-09T02:11:11;14.00;99.90
20881;DHT22;10600;53.096;8.802;2022-09-09T02:12:15;14.00;99.90
20881;DHT22;10600;53.096;8.802;2022-09-09T02:13:20;13.90;99.90
20881;DHT22;10600;53.096;8.802;2022-09-09T02:14:25;13.90;99.90
20881;DHT22;10600;53.096;8.802;2022-09-09T02:15:35;13.90;99.90
20881;DHT22;10600;53.096;8.802;2022-09-09T02:16:42;13.90;99.90
20881;DHT22;10600;53.096;8.802;2022-09-09T02:17:46;13.90;99.90
20881;DHT22;10600;53.096;8.802;2022-09-09T02:20:08;13.90;99.90
20881;DHT22;10600;53.096;8.802;2022-09-09T02:21:11;13.90;99.90
20881;DHT22;10600;53.096;8.802;2022-09-09T02:22:16;13.90;99.90
20881;DHT22;10600;53.096;8.802;2022-09-09T02:23:19;13.90;99.90
20881;DHT22;10600;53.096;8.802;2022-09-09T02:24:22;13.90;99.90
20881;DHT22;10600;53.096;8.802;2022-09-09T02:25:26;13.90;99.90
20881;DHT22;10600;53.096;8.802;2022-09-09T02:26:28;13.90;99.90
20881;DHT22;10600;53.096;8.802;2022-09-09T02:27:29;13.90;99.90
20881;DHT22;10600;53.096;8.802;2022-09-09T02:28:31;13.90;99.90
20881;DHT22;10600;53.096;8.802;2022-09-09T02:29:41;13.90;99.90
20881;DHT22;10600;53.096;8.802;2022-09-09T02:30:45;13.90;99.90
20881;DHT22;10600;53.096;8.802;2022-09-09T02:31:48;13.90;99.90
20881;DHT22;10600;53.096;8.802;2022-09-09T02:32:52;13.80;99.90
20881;DHT22;10600;53.096;8.802;2022-09-09T02:34:01;13.90;99.90
20881;DHT22;10600;53.096;8.802;2022-09-09T02:35:14;13.80;99.90
20881;DHT22;10600;53.096;8.802;2022-09-09T02:36:15;13.80;99.90
20881;DHT22;10600;53.096;8.802;2022-09-09T02:37:19;13.80;99.90
20881;DHT22;10600;53.096;8.802;2022-09-09T02:38:22;13.80;99.90
20881;DHT22;10600;53.096;8.802;2022-09-09T02:39:25;13.80;99.90
20881;DHT22;10600;53.096;8.802;2022-09-09T02:40:26;13.90;99.90
20881;DHT22;10600;53.096;8.802;2022-09-09T02:41:34;13.80;99.90
20881;DHT22;10600;53.096;8.802;2022-09-09T02:42:44;13.80;99.90
20881;DHT22;10600;53.096;8.802;2022-09-09T02:43:45;13.80;99.90
20881;DHT22;10600;53.096;8.802;2022-09-09T02:44:46;13.80;99.90
20881;DHT22;10600;53.096;8.802;2022-09-09T02:47:30;13.80;99.90
20881;DHT22;10600;53.096;8.802;2022-09-09T02:48:54;13.80;99.90
20881;DHT22;10600;53.096;8.802;2022-09-09T02:50:08;13.80;99.90
20881;DHT22;10600;53.096;8.802;2022-09-09T02:51:21;13.80;99.90
20881;DHT22;10600;53.096;8.802;2022-09-09T02:53:48;13.80;99.90
20881;DHT22;10600;53.096;8.802;2022-09-09T02:54:53;13.70;99.90
20881;DHT22;10600;53.096;8.802;2022-09-09T02:56:04;13.70;99.90
20881;DHT22;10600;53.096;8.802;2022-09-09T02:57:13;13.70;99.90
20881;DHT22;10600;53.096;8.802;2022-09-09T02:58:17;13.70;99.90
20881;DHT22;10600;53.096;8.802;2022-09-09T02:59:18;13.70;99.90
20881;DHT22;10600;53.096;8.802;2022-09-09T03:00:24;13.70;99.90
20881;DHT22;10600;53.096;8.802;2022-09-09T03:01:25;13.60;99.90
20881;DHT22;10600;53.096;8.802;2022-09-09T03:02:26;13.70;99.90
20881;DHT22;10600;53.096;8.802;2022-09-09T03:03:27;13.60;99.90
20881;DHT22;10600;53.096;8.802;2022-09-09T03:04:28;13.70;99.90
20881;DHT22;10600;53.096;8.802;2022-09-09T03:05:29;13.70;99.90
20881;DHT22;10600;53.096;8.802;2022-09-09T03:06:29;13.60;99.90
20881;DHT22;10600;53.096;8.802;2022-09-09T03:07:30;13.60;99.90
20881;DHT22;10600;53.096;8.802;2022-09-09T03:08:31;13.70;99.90
20881;DHT22;10600;53.096;8.802;2022-09-09T03:09:32;13.70;99.90
20881;DHT22;10600;53.096;8.802;2022-09-09T03:10:35;13.70;99.90
20881;DHT22;10600;53.096;8.802;2022-09-09T03:11:37;13.70;99.90
20881;DHT22;10600;53.096;8.802;2022-09-09T03:12:38;13.70;99.90
20881;DHT22;10600;53.096;8.802;2022-09-09T03:13:39;13.70;99.90
20881;DHT22;10600;53.096;8.802;2022-09-09T03:14:40;13.70;99.90
20881;DHT22;10600;53.096;8.802;2022-09-09T03:15:41;13.70;99.90
20881;DHT22;10600;53.096;8.802;2022-09-09T03:16:41;13.70;99.90
20881;DHT22;10600;53.096;8.802;2022-09-09T03:17:43;13.70;99.90
20881;DHT22;10600;53.096;8.802;2022-09-09T03:18:44;13.70;99.90
20881;DHT22;10600;53.096;8.802;2022-09-09T03:19:45;13.70;99.90
20881;DHT22;10600;53.096;8.802;2022-09-09T03:20:46;13.70;99.90
20881;DHT22;10600;53.096;8.802;2022-09-09T03:21:48;13.70;99.90
20881;DHT22;10600;53.096;8.802;2022-09-09T03:22:49;13.70;99.90
20881;DHT22;10600;53.096;8.802;2022-09-09T03:23:50;13.70;99.90
20881;DHT22;10600;53.096;8.802;2022-09-09T03:24:51;13.70;99.90
20881;DHT22;10600;53.096;8.802;2022-09-09T03:25:52;13.70;99.90
20881;DHT22;10600;53.096;8.802;2022-09-09T03:26:57;13.70;99.90
20881;DHT22;10600;53.096;8.802;2022-09-09T03:27:57;13.70;99.90
20881;DHT22;10600;53.096;8.802;2022-09-09T03:28:58;13.70;99.90
20881;DHT22;10600;53.096;8.802;2022-09-09T03:30:00;13.70;99.90
20881;DHT22;10600;53.096;8.802;2022-09-09T03:31:05;13.80;99.90
20881;DHT22;10600;53.096;8.802;2022-09-09T03:32:06;13.80;99.90
20881;DHT22;10600;53.096;8.802;2022-09-09T03:33:06;13.80;99.90
20881;DHT22;10600;53.096;8.802;2022-09-09T03:34:07;13.80;99.90
20881;DHT22;10600;53.096;8.802;2022-09-09T03:35:08;13.80;99.90
20881;DHT22;10600;53.096;8.802;2022-09-09T03:36:09;13.80;99.90
20881;DHT22;10600;53.096;8.802;2022-09-09T03:37:11;13.90;99.90
20881;DHT22;10600;53.096;8.802;2022-09-09T03:38:11;13.80;99.90
20881;DHT22;10600;53.096;8.802;2022-09-09T03:39:12;13.90;99.90
20881;DHT22;10600;53.096;8.802;2022-09-09T03:40:13;13.90;99.90
20881;DHT22;10600;53.096;8.802;2022-09-09T03:41:13;13.90;99.90
20881;DHT22;10600;53.096;8.802;2022-09-09T03:42:15;13.90;99.90
20881;DHT22;10600;53.096;8.802;2022-09-09T03:43:19;13.90;99.90
20881;DHT22;10600;53.096;8.802;2022-09-09T03:44:20;13.90;99.90
20881;DHT22;10600;53.096;8.802;2022-09-09T03:45:21;13.90;99.90
20881;DHT22;10600;53.096;8.802;2022-09-09T03:46:23;13.90;99.90
20881;DHT22;10600;53.096;8.802;2022-09-09T03:47:24;13.90;99.90
20881;DHT22;10600;53.096;8.802;2022-09-09T03:48:25;13.90;99.90
20881;DHT22;10600;53.096;8.802;2022-09-09T03:49:28;13.90;99.90
20881;DHT22;10600;53.096;8.802;2022-09-09T03:50:28;13.90;99.90
20881;DHT22;10600;53.096;8.802;2022-09-09T03:51:29;14.00;99.90
20881;DHT22;10600;53.096;8.802;2022-09-09T03:52:30;13.90;99.90
20881;DHT22;10600;53.096;8.802;2022-09-09T03:53:31;14.00;99.90
20881;DHT22;10600;53.096;8.802;2022-09-09T03:54:32;14.00;99.90
20881;DHT22;10600;53.096;8.802;2022-09-09T03:55:32;14.00;99.90
20881;DHT22;10600;53.096;8.802;2022-09-09T03:56:34;14.00;99.90
20881;DHT22;10600;53.096;8.802;2022-09-09T03:57:35;14.00;99.90
20881;DHT22;10600;53.096;8.802;2022-09-09T03:58:37;14.00;99.90
20881;DHT22;10600;53.096;8.802;2022-09-09T03:59:38;14.00;99.90
20881;DHT22;10600;53.096;8.802;2022-09-09T04:00:39;14.00;99.90
20881;DHT22;10600;53.096;8.802;2022-09-09T04:01:43;14.00;99.90
20881;DHT22;10600;53.096;8.802;2022-09-09T04:02:45;14.00;99.90
20881;DHT22;10600;53.096;8.802;2022-09-09T04:03:46;14.00;99.90
20881;DHT22;10600;53.096;8.802;2022-09-09T04:04:47;14.00;99.90
20881;DHT22;10600;53.096;8.802;2022-09-09T04:05:51;14.00;99.90
20881;DHT22;10600;53.096;8.802;2022-09-09T04:06:53;14.10;99.90
20881;DHT22;10600;53.096;8.802;2022-09-09T04:07:54;14.00;99.90
20881;DHT22;10600;53.096;8.802;2022-09-09T04:08:54;14.00;99.90
20881;DHT22;10600;53.096;8.802;2022-09-09T04:09:55;14.00;99.90
20881;DHT22;10600;53.096;8.802;2022-09-09T04:10:57;14.00;99.90
20881;DHT22;10600;53.096;8.802;2022-09-09T04:11:58;14.10;99.90
20881;DHT22;10600;53.096;8.802;2022-09-09T04:12:58;14.00;99.90
20881;DHT22;10600;53.096;8.802;2022-09-09T04:14:00;14.00;99.90
20881;DHT22;10600;53.096;8.802;2022-09-09T04:15:00;14.10;99.90
20881;DHT22;10600;53.096;8.802;2022-09-09T04:16:03;14.10;99.90
20881;DHT22;10600;53.096;8.802;2022-09-09T04:17:04;14.10;99.90
20881;DHT22;10600;53.096;8.802;2022-09-09T04:18:06;14.10;99.90
20881;DHT22;10600;53.096;8.802;2022-09-09T04:19:07;14.10;99.90
20881;DHT22;10600;53.096;8.802;2022-09-09T04:20:08;14.10;99.90
20881;DHT22;10600;53.096;8.802;2022-09-09T04:21:11;14.10;99.90
20881;DHT22;10600;53.096;8.802;2022-09-09T04:22:12;14.10;99.90
20881;DHT22;10600;53.096;8.802;2022-09-09T04:23:13;14.10;99.90
20881;DHT22;10600;53.096;8.802;2022-09-09T04:24:14;14.10;99.90
20881;DHT22;10600;53.096;8.802;2022-09-09T04:25:16;14.10;99.90
20881;DHT22;10600;53.096;8.802;2022-09-09T04:26:17;14.10;99.90
20881;DHT22;10600;53.096;8.802;2022-09-09T04:27:18;14.10;99.90
20881;DHT22;10600;53.096;8.802;2022-09-09T04:28:22;14.20;99.90
20881;DHT22;10600;53.096;8.802;2022-09-09T04:29:22;14.20;99.90
20881;DHT22;10600;53.096;8.802;2022-09-09T04:30:24;14.20;99.90
20881;DHT22;10600;53.096;8.802;2022-09-09T04:31:25;14.10;99.90
20881;DHT22;10600;53.096;8.802;2022-09-09T04:32:26;14.10;99.90
20881;DHT22;10600;53.096;8.802;2022-09-09T04:33:27;14.20;99.90
20881;DHT22;10600;53.096;8.802;2022-09-09T04:34:28;14.20;99.90
20881;DHT22;10600;53.096;8.802;2022-09-09T04:35:29;14.20;99.90
20881;DHT22;10600;53.096;8.802;2022-09-09T04:36:30;14.20;99.90
20881;DHT22;10600;53.096;8.802;2022-09-09T04:37:30;14.20;99.90
20881;DHT22;10600;53.096;8.802;2022-09-09T04:38:31;14.20;99.90
20881;DHT22;10600;53.096;8.802;2022-09-09T04:39:31;14.20;99.90
20881;DHT22;10600;53.096;8.802;2022-09-09T04:40:32;14.20;99.90
20881;DHT22;10600;53.096;8.802;2022-09-09T04:41:33;14.20;99.90
20881;DHT22;10600;53.096;8.802;2022-09-09T04:42:36;14.20;99.90
20881;DHT22;10600;53.096;8.802;2022-09-09T04:43:38;14.20;99.90
20881;DHT22;10600;53.096;8.802;2022-09-09T04:44:39;14.20;99.90
20881;DHT22;10600;53.096;8.802;2022-09-09T04:45:47;14.20;99.90
20881;DHT22;10600;53.096;8.802;2022-09-09T04:46:48;14.20;99.90
20881;DHT22;10600;53.096;8.802;2022-09-09T04:47:48;14.30;99.90
20881;DHT22;10600;53.096;8.802;2022-09-09T04:48:49;14.20;99.90
20881;DHT22;10600;53.096;8.802;2022-09-09T04:49:50;14.20;99.90
20881;DHT22;10600;53.096;8.802;2022-09-09T04:51:05;14.30;99.90
20881;DHT22;10600;53.096;8.802;2022-09-09T04:52:06;14.30;99.90
20881;DHT22;10600;53.096;8.802;2022-09-09T04:53:07;14.30;99.90
20881;DHT22;10600;53.096;8.802;2022-09-09T04:54:08;14.30;99.90
20881;DHT22;10600;53.096;8.802;2022-09-09T04:55:09;14.30;99.90
20881;DHT22;10600;53.096;8.802;2022-09-09T04:56:17;14.30;99.90
20881;DHT22;10600;53.096;8.802;2022-09-09T04:57:17;14.30;99.90
20881;DHT22;10600;53.096;8.802;2022-09-09T04:58:18;14.30;99.90
20881;DHT22;10600;53.096;8.802;2022-09-09T04:59:19;14.30;99.90
20881;DHT22;10600;53.096;8.802;2022-09-09T05:00:20;14.30;99.90
20881;DHT22;10600;53.096;8.802;2022-09-09T05:01:21;14.30;99.90
20881;DHT22;10600;53.096;8.802;2022-09-09T05:02:22;14.30;99.90
20881;DHT22;10600;53.096;8.802;2022-09-09T05:03:23;14.30;99.90
20881;DHT22;10600;53.096;8.802;2022-09-09T05:04:23;14.30;99.90
20881;DHT22;10600;53.096;8.802;2022-09-09T05:05:24;14.30;99.90
20881;DHT22;10600;53.096;8.802;2022-09-09T05:06:26;14.40;99.90
20881;DHT22;10600;53.096;8.802;2022-09-09T05:07:26;14.30;99.90
20881;DHT22;10600;53.096;8.802;2022-09-09T05:08:27;14.30;99.90
20881;DHT22;10600;53.096;8.802;2022-09-09T05:09:28;14.40;99.90
20881;DHT22;10600;53.096;8.802;2022-09-09T05:10:29;14.30;99.90
20881;DHT22;10600;53.096;8.802;2022-09-09T05:11:32;14.30;99.90
20881;DHT22;10600;53.096;8.802;2022-09-09T05:12:36;14.30;99.90
20881;DHT22;10600;53.096;8.802;2022-09-09T05:13:36;14.30;99.90
20881;DHT22;10600;53.096;8.802;2022-09-09T05:14:37;14.30;99.90
20881;DHT22;10600;53.096;8.802;2022-09-09T05:15:38;14.30;99.90
20881;DHT22;10600;53.096;8.802;2022-09-09T05:16:38;14.30;99.90
20881;DHT22;10600;53.096;8.802;2022-09-09T05:17:39;14.30;99.90
20881;DHT22;10600;53.096;8.802;2022-09-09T05:18:40;14.30;99.90
20881;DHT22;10600;53.096;8.802;2022-09-09T05:19:43;14.30;99.90
20881;DHT22;10600;53.096;8.802;2022-09-09T05:20:44;14.30;99.90
20881;DHT22;10600;53.096;8.802;2022-09-09T05:21:45;14.30;99.90
20881;DHT22;10600;53.096;8.802;2022-09-09T05:22:45;14.30;99.90
20881;DHT22;10600;53.096;8.802;2022-09-09T05:23:46;14.30;99.90
20881;DHT22;10600;53.096;8.802;2022-09-09T05:24:49;14.30;99.90
20881;DHT22;10600;53.096;8.802;2022-09-09T05:25:57;14.30;99.90
20881;DHT22;10600;53.096;8.802;2022-09-09T05:26:58;14.30;99.90
20881;DHT22;10600;53.096;8.802;2022-09-09T05:28:00;14.30;99.90
20881;DHT22;10600;53.096;8.802;2022-09-09T05:29:01;14.30;99.90
20881;DHT22;10600;53.096;8.802;2022-09-09T05:30:01;14.30;99.90
20881;DHT22;10600;53.096;8.802;2022-09-09T05:31:04;14.30;99.90
20881;DHT22;10600;53.096;8.802;2022-09-09T05:32:05;14.30;99.90
20881;DHT22;10600;53.096;8.802;2022-09-09T05:33:06;14.30;99.90
20881;DHT22;10600;53.096;8.802;2022-09-09T05:34:07;14.30;99.90
20881;DHT22;10600;53.096;8.802;2022-09-09T05:35:07;14.30;99.90
20881;DHT22;10600;53.096;8.802;2022-09-09T05:36:10;14.30;99.90
20881;DHT22;10600;53.096;8.802;2022-09-09T05:37:13;14.40;99.90
20881;DHT22;10600;53.096;8.802;2022-09-09T05:38:14;14.40;99.90
20881;DHT22;10600;53.096;8.802;2022-09-09T05:39:14;14.40;99.90
20881;DHT22;10600;53.096;8.802;2022-09-09T05:40:15;14.40;99.90
20881;DHT22;10600;53.096;8.802;2022-09-09T05:41:17;14.40;99.90
20881;DHT22;10600;53.096;8.802;2022-09-09T05:42:17;14.40;99.90
20881;DHT22;10600;53.096;8.802;2022-09-09T05:43:19;14.40;99.90
20881;DHT22;10600;53.096;8.802;2022-09-09T05:44:23;14.50;99.90
20881;DHT22;10600;53.096;8.802;2022-09-09T05:45:27;14.50;99.90
20881;DHT22;10600;53.096;8.802;2022-09-09T05:46:29;14.50;99.90
20881;DHT22;10600;53.096;8.802;2022-09-09T05:47:30;14.50;99.90
20881;DHT22;10600;53.096;8.802;2022-09-09T05:48:32;14.50;99.90
20881;DHT22;10600;53.096;8.802;2022-09-09T05:49:33;14.50;99.90
20881;DHT22;10600;53.096;8.802;2022-09-09T05:50:33;14.50;99.90
20881;DHT22;10600;53.096;8.802;2022-09-09T05:51:34;14.50;99.90
20881;DHT22;10600;53.096;8.802;2022-09-09T05:52:35;14.60;99.90
20881;DHT22;10600;53.096;8.802;2022-09-09T05:53:35;14.60;99.90
20881;DHT22;10600;53.096;8.802;2022-09-09T05:54:36;14.60;99.90
20881;DHT22;10600;53.096;8.802;2022-09-09T05:55:38;14.60;99.90
20881;DHT22;10600;53.096;8.802;2022-09-09T05:56:38;14.60;99.90
20881;DHT22;10600;53.096;8.802;2022-09-09T05:57:39;14.60;99.90
20881;DHT22;10600;53.096;8.802;2022-09-09T05:58:40;14.60;99.90
20881;DHT22;10600;53.096;8.802;2022-09-09T05:59:44;14.60;99.90
20881;DHT22;10600;53.096;8.802;2022-09-09T06:00:44;14.60;99.90
20881;DHT22;10600;53.096;8.802;2022-09-09T06:01:45;14.60;99.90
20881;DHT22;10600;53.096;8.802;2022-09-09T06:02:51;14.60;99.90
20881;DHT22;10600;53.096;8.802;2022-09-09T06:03:53;14.70;99.90
20881;DHT22;10600;53.096;8.802;2022-09-09T06:04:53;14.70;99.90
20881;DHT22;10600;53.096;8.802;2022-09-09T06:06:05;14.70;99.90
20881;DHT22;10600;53.096;8.802;2022-09-09T06:07:06;14.70;99.90
20881;DHT22;10600;53.096;8.802;2022-09-09T06:08:07;14.80;99.90
20881;DHT22;10600;53.096;8.802;2022-09-09T06:09:09;14.80;99.90
20881;DHT22;10600;53.096;8.802;2022-09-09T06:10:11;14.80;99.90
20881;DHT22;10600;53.096;8.802;2022-09-09T06:11:20;14.80;99.90
20881;DHT22;10600;53.096;8.802;2022-09-09T06:12:21;14.90;99.90
20881;DHT22;10600;53.096;8.802;2022-09-09T06:13:22;14.90;99.90
20881;DHT22;10600;53.096;8.802;2022-09-09T06:14:24;14.90;99.90
20881;DHT22;10600;53.096;8.802;2022-09-09T06:15:25;14.90;99.90
20881;DHT22;10600;53.096;8.802;2022-09-09T06:16:28;14.90;99.90
20881;DHT22;10600;53.096;8.802;2022-09-09T06:17:29;15.00;99.90
20881;DHT22;10600;53.096;8.802;2022-09-09T06:18:30;15.00;99.90
20881;DHT22;10600;53.096;8.802;2022-09-09T06:19:30;15.00;99.90
20881;DHT22;10600;53.096;8.802;2022-09-09T06:20:31;15.00;99.90
20881;DHT22;10600;53.096;8.802;2022-09-09T06:21:34;15.10;99.90
20881;DHT22;10600;53.096;8.802;2022-09-09T06:22:39;15.10;99.90
20881;DHT22;10600;53.096;8.802;2022-09-09T06:23:41;15.10;99.90
20881;DHT22;10600;53.096;8.802;2022-09-09T06:24:42;15.10;99.90
20881;DHT22;10600;53.096;8.802;2022-09-09T06:25:42;15.20;99.90
20881;DHT22;10600;53.096;8.802;2022-09-09T06:26:43;15.20;99.90
20881;DHT22;10600;53.096;8.802;2022-09-09T06:27:48;15.20;99.90
20881;DHT22;10600;53.096;8.802;2022-09-09T06:28:51;15.20;99.90
20881;DHT22;10600;53.096;8.802;2022-09-09T06:29:52;15.30;99.90
20881;DHT22;10600;53.096;8.802;2022-09-09T06:31:07;15.30;99.90
20881;DHT22;10600;53.096;8.802;2022-09-09T06:32:08;15.40;99.90
20881;DHT22;10600;53.096;8.802;2022-09-09T06:33:09;15.40;99.90
20881;DHT22;10600;53.096;8.802;2022-09-09T06:34:09;15.40;99.90
20881;DHT22;10600;53.096;8.802;2022-09-09T06:35:10;15.40;99.90
20881;DHT22;10600;53.096;8.802;2022-09-09T06:36:16;15.50;99.90
20881;DHT22;10600;53.096;8.802;2022-09-09T06:37:18;15.50;99.90
20881;DHT22;10600;53.096;8.802;2022-09-09T06:38:19;15.50;99.90
20881;DHT22;10600;53.096;8.802;2022-09-09T06:39:19;15.50;99.90
20881;DHT22;10600;53.096;8.802;2022-09-09T06:40:21;15.50;99.90
20881;DHT22;10600;53.096;8.802;2022-09-09T06:41:23;15.50;99.90
20881;DHT22;10600;53.096;8.802;2022-09-09T06:42:25;15.60;99.90
20881;DHT22;10600;53.096;8.802;2022-09-09T06:43:26;15.60;99.90
20881;DHT22;10600;53.096;8.802;2022-09-09T06:44:27;15.60;99.90
20881;DHT22;10600;53.096;8.802;2022-09-09T06:45:27;15.60;99.90
20881;DHT22;10600;53.096;8.802;2022-09-09T06:46:30;15.50;99.90
20881;DHT22;10600;53.096;8.802;2022-09-09T06:47:33;15.60;99.90
20881;DHT22;10600;53.096;8.802;2022-09-09T06:48:34;15.50;99.90
20881;DHT22;10600;53.096;8.802;2022-09-09T06:49:34;15.50;99.90
20881;DHT22;10600;53.096;8.802;2022-09-09T06:50:35;15.60;99.90
20881;DHT22;10600;53.096;8.802;2022-09-09T06:51:37;15.50;99.90
20881;DHT22;10600;53.096;8.802;2022-09-09T06:52:46;15.60;99.90
20881;DHT22;10600;53.096;8.802;2022-09-09T06:53:50;15.60;99.90
20881;DHT22;10600;53.096;8.802;2022-09-09T06:54:51;15.60;99.90
20881;DHT22;10600;53.096;8.802;2022-09-09T06:55:52;15.60;99.90
20881;DHT22;10600;53.096;8.802;2022-09-09T06:56:53;15.60;99.90
20881;DHT22;10600;53.096;8.802;2022-09-09T06:57:53;15.60;99.90
20881;DHT22;10600;53.096;8.802;2022-09-09T06:58:56;15.60;99.90
20881;DHT22;10600;53.096;8.802;2022-09-09T06:59:58;15.60;99.90
20881;DHT22;10600;53.096;8.802;2022-09-09T07:01:06;15.60;99.90
20881;DHT22;10600;53.096;8.802;2022-09-09T07:02:07;15.60;99.90
20881;DHT22;10600;53.096;8.802;2022-09-09T07:03:10;15.70;99.90
20881;DHT22;10600;53.096;8.802;2022-09-09T07:04:11;15.70;99.90
20881;DHT22;10600;53.096;8.802;2022-09-09T07:05:13;15.70;99.90
20881;DHT22;10600;53.096;8.802;2022-09-09T07:06:21;15.70;99.90
20881;DHT22;10600;53.096;8.802;2022-09-09T07:07:23;15.70;99.90
20881;DHT22;10600;53.096;8.802;2022-09-09T07:08:25;15.70;99.90
20881;DHT22;10600;53.096;8.802;2022-09-09T07:09:25;15.80;99.90
20881;DHT22;10600;53.096;8.802;2022-09-09T07:10:27;15.80;99.90
20881;DHT22;10600;53.096;8.802;2022-09-09T07:11:31;15.90;99.90
20881;DHT22;10600;53.096;8.802;2022-09-09T07:12:32;15.90;99.90
20881;DHT22;10600;53.096;8.802;2022-09-09T07:13:33;16.00;99.90
20881;DHT22;10600;53.096;8.802;2022-09-09T07:14:34;16.00;99.90
20881;DHT22;10600;53.096;8.802;2022-09-09T07:15:37;16.10;99.90
20881;DHT22;10600;53.096;8.802;2022-09-09T07:16:38;16.10;99.90